Time;durP1;ratioP1;P1;durP2;ratioP2;P2;SDS_P1;SDS_P2;PMS_P1;PMS_P2;Temp;Humidity;BMP_temperature;BMP_pressure;BME280_temperature;BME280_humidity;BME280_pressure;Samples;Min_cycle;Max_cycle;Signal;HPM_P1;HPM_P2
2021/03/22 00:01:12;;;;;;;11.53;5.50;;;;;;;2.50;71.45;98172.94;5003673;28;20308;-68
2021/03/22 00:03:39;;;;;;;15.60;7.17;;;;;;;2.34;72.26;98169.72;5003321;28;20225;-67
2021/03/22 00:06:07;;;;;;;15.20;8.13;;;;;;;2.30;72.34;98175.16;5001701;28;20209;-67
2021/03/22 00:08:34;;;;;;;13.10;5.47;;;;;;;2.29;72.00;98170.88;5002694;28;20197;-67
2021/03/22 00:11:01;;;;;;;13.87;6.00;;;;;;;2.22;72.57;98180.09;5003124;28;20727;-65
2021/03/22 00:13:29;;;;;;;12.67;5.30;;;;;;;2.38;71.42;98176.38;5005051;28;20213;-67
2021/03/22 00:16:02;;;;;;;15.10;7.00;;;;;;;2.39;70.51;98175.44;4999866;28;20697;-68
2021/03/22 00:18:34;;;;;;;13.40;6.07;;;;;;;2.22;71.50;98177.47;5001400;28;20243;-68
2021/03/22 00:21:02;;;;;;;16.77;6.03;;;;;;;2.25;71.14;98179.88;5009022;28;20222;-66
2021/03/22 00:23:29;;;;;;;10.13;5.17;;;;;;;2.31;70.82;98168.16;5003323;28;20212;-66
2021/03/22 00:25:56;;;;;;;13.77;4.50;;;;;;;2.40;69.51;98174.50;5001040;28;20209;-68
2021/03/22 00:28:24;;;;;;;14.30;5.57;;;;;;;2.30;69.83;98169.91;5003427;28;20208;-68
2021/03/22 00:30:51;;;;;;;11.30;5.77;;;;;;;2.30;69.48;98167.31;5003176;28;20229;-67
2021/03/22 00:33:19;;;;;;;19.53;6.73;;;;;;;2.26;69.54;98168.47;5000078;28;20217;-67
2021/03/22 00:35:48;;;;;;;19.03;5.20;;;;;;;2.13;70.02;98165.03;5003862;28;20205;-66
2021/03/22 00:38:16;;;;;;;15.83;6.63;;;;;;;2.15;69.77;98161.38;5002909;28;20219;-68
2021/03/22 00:40:45;;;;;;;12.40;4.43;;;;;;;2.21;69.65;98162.72;5003528;28;20205;-66
2021/03/22 00:43:13;;;;;;;12.50;5.27;;;;;;;2.21;68.98;98154.88;5003042;28;20646;-67
2021/03/22 00:45:52;;;;;;;14.30;4.77;;;;;;;2.07;69.42;98158.44;5008709;28;20584;-66
2021/03/22 00:48:19;;;;;;;11.63;5.30;;;;;;;2.10;69.07;98165.25;5002081;28;20524;-67
2021/03/22 00:50:47;;;;;;;11.27;4.87;;;;;;;2.19;68.53;98156.78;5003726;28;20376;-68
2021/03/22 00:53:15;;;;;;;14.20;5.07;;;;;;;2.08;69.57;98162.75;4999689;28;20574;-67
2021/03/22 00:55:43;;;;;;;10.27;4.40;;;;;;;2.06;69.67;98164.63;5003345;28;20217;-68
2021/03/22 00:58:10;;;;;;;8.17;3.87;;;;;;;2.06;69.24;98150.69;5001057;28;20209;-65
2021/03/22 01:00:40;;;;;;;10.10;4.77;;;;;;;1.98;69.82;98152.06;5009159;28;20507;-68
2021/03/22 01:03:08;;;;;;;15.63;5.50;;;;;;;1.99;69.68;98151.13;5002999;28;20240;-68
2021/03/22 01:05:36;;;;;;;16.33;4.93;;;;;;;1.95;69.78;98146.25;4999985;28;20252;-67
2021/03/22 01:08:05;;;;;;;6.17;3.77;;;;;;;2.00;68.98;98147.56;5001625;28;20300;-67
2021/03/22 01:10:37;;;;;;;10.07;4.60;;;;;;;2.00;69.45;98144.97;5002769;28;20207;-67
2021/03/22 01:13:07;;;;;;;11.73;4.63;;;;;;;2.02;68.90;98143.06;5001943;28;20205;-67
2021/03/22 01:15:34;;;;;;;12.70;4.57;;;;;;;2.00;68.82;98137.13;5000846;28;20720;-69
2021/03/22 01:18:01;;;;;;;14.37;5.50;;;;;;;1.97;68.94;98149.56;5003617;28;20292;-65
2021/03/22 01:20:31;;;;;;;13.03;4.60;;;;;;;2.13;68.81;98138.91;5002254;28;20211;-66
2021/03/22 01:22:58;;;;;;;13.53;4.77;;;;;;;2.07;68.54;98134.91;5003131;28;20215;-66
2021/03/22 01:25:26;;;;;;;10.57;4.30;;;;;;;2.04;68.72;98148.22;4998353;28;20685;-66
2021/03/22 01:27:55;;;;;;;9.77;4.43;;;;;;;2.05;68.87;98149.03;5015530;28;20249;-67
2021/03/22 01:30:26;;;;;;;12.87;5.27;;;;;;;2.01;69.84;98145.81;5005076;28;20209;-68
2021/03/22 01:32:53;;;;;;;13.83;5.67;;;;;;;1.92;70.24;98142.03;5003785;28;20300;-66
2021/03/22 01:35:20;;;;;;;11.90;4.67;;;;;;;1.99;69.89;98145.91;5002136;28;20689;-68
2021/03/22 01:37:48;;;;;;;14.33;6.83;;;;;;;2.00;70.00;98147.56;4999280;28;20661;-66
2021/03/22 01:40:27;;;;;;;17.90;5.03;;;;;;;1.94;71.18;98152.41;5006190;28;20210;-66
2021/03/22 01:43:01;;;;;;;10.47;5.20;;;;;;;1.91;70.96;98143.00;5002617;28;20240;-66
2021/03/22 01:45:28;;;;;;;11.10;6.40;;;;;;;1.98;70.90;98143.41;5001089;28;20217;-68
2021/03/22 01:47:55;;;;;;;9.40;4.07;;;;;;;1.96;70.57;98140.88;4996844;28;20206;-66
2021/03/22 01:50:25;;;;;;;12.60;4.80;;;;;;;1.97;70.67;98139.13;5003749;28;20724;-67
2021/03/22 01:52:53;;;;;;;16.20;9.43;;;;;;;2.04;69.83;98145.59;5001249;28;20245;-67
2021/03/22 01:55:22;;;;;;;8.57;4.63;;;;;;;1.98;70.69;98143.41;5001624;28;20248;-67
2021/03/22 01:57:50;;;;;;;12.47;5.23;;;;;;;2.00;70.17;98146.75;4998156;28;20213;-67
2021/03/22 02:00:24;;;;;;;10.53;4.40;;;;;;;1.90;69.98;98140.50;5001554;28;20607;-67
2021/03/22 02:02:54;;;;;;;14.10;4.80;;;;;;;1.94;69.43;98147.19;4996457;28;20208;-68
2021/03/22 02:05:25;;;;;;;7.73;5.10;;;;;;;1.88;69.98;98141.41;5000445;28;20236;-68
2021/03/22 02:07:58;;;;;;;8.33;4.27;;;;;;;1.77;70.29;98138.69;5001726;28;20307;-65
2021/03/22 02:10:25;;;;;;;9.90;4.73;;;;;;;1.69;70.50;98147.06;5002663;28;20267;-68
2021/03/22 02:12:53;;;;;;;12.67;6.87;;;;;;;1.65;70.94;98142.16;5005044;28;20323;-67
2021/03/22 02:15:20;;;;;;;15.63;7.43;;;;;;;1.62;69.87;98137.13;5002977;28;20233;-66
2021/03/22 02:18:06;;;;;;;13.40;5.07;;;;;;;1.57;70.38;98140.06;5001713;28;20689;-67
2021/03/22 02:21:11;;;;;;;10.40;4.73;;;;;;;1.48;71.46;98138.88;5005349;28;20220;-67
2021/03/22 02:24:04;;;;;;;14.77;5.77;;;;;;;1.38;71.78;98151.75;5001753;28;20757;-67
2021/03/22 02:27:03;;;;;;;25.87;10.10;;;;;;;1.35;72.00;98151.94;4999215;28;20215;-67
2021/03/22 02:29:43;;;;;;;10.37;4.77;;;;;;;1.34;72.49;98154.66;5003387;28;20205;-68
2021/03/22 02:32:21;;;;;;;11.83;4.23;;;;;;;1.29;72.67;98153.19;4999767;28;20644;-67
2021/03/22 02:34:51;;;;;;;16.03;6.57;;;;;;;1.30;72.35;98160.09;5002564;28;20241;-67
2021/03/22 02:37:47;;;;;;;12.17;4.23;;;;;;;1.24;73.21;98175.31;5001767;28;20402;-67
2021/03/22 02:40:26;;;;;;;15.60;7.60;;;;;;;1.18;73.51;98171.34;4966873;28;20627;-68
2021/03/22 02:42:54;;;;;;;8.33;4.60;;;;;;;1.20;72.69;98177.28;5002259;28;20204;-66
2021/03/22 02:45:23;;;;;;;17.63;7.27;;;;;;;1.15;73.33;98176.75;5000442;28;20312;-67
2021/03/22 02:47:50;;;;;;;10.73;4.70;;;;;;;1.18;73.36;98173.09;5003994;28;20291;-68
2021/03/22 02:50:21;;;;;;;11.03;4.83;;;;;;;1.21;73.10;98178.97;5003982;28;20208;-67
2021/03/22 02:53:06;;;;;;;11.63;4.97;;;;;;;1.20;73.40;98182.53;5002459;28;20228;-67
2021/03/22 02:55:39;;;;;;;11.93;5.23;;;;;;;1.22;73.07;98185.00;5000862;28;20229;-67
2021/03/22 02:58:07;;;;;;;12.93;5.07;;;;;;;1.23;73.02;98189.28;5000572;28;20360;-66
2021/03/22 03:00:37;;;;;;;11.10;5.50;;;;;;;1.22;73.47;98182.41;5001793;28;20200;-68
2021/03/22 03:03:06;;;;;;;14.07;4.77;;;;;;;1.29;72.80;98179.28;5005570;28;20228;-67
2021/03/22 03:05:35;;;;;;;9.33;4.00;;;;;;;1.35;72.80;98188.50;4997915;28;20356;-66
2021/03/22 03:08:07;;;;;;;10.20;3.73;;;;;;;1.37;72.99;98191.84;5007530;28;20595;-66
2021/03/22 03:10:34;;;;;;;10.57;4.50;;;;;;;1.32;73.36;98193.09;5001688;28;20215;-67
2021/03/22 03:13:01;;;;;;;10.67;4.47;;;;;;;1.29;72.79;98192.34;5006709;28;20307;-67
2021/03/22 03:15:29;;;;;;;12.13;4.07;;;;;;;1.15;73.47;98195.84;5004884;28;20813;-67
2021/03/22 03:17:56;;;;;;;9.83;4.30;;;;;;;1.24;73.67;98194.44;5004832;28;20232;-65
2021/03/22 03:20:25;;;;;;;11.60;4.63;;;;;;;1.24;73.05;98194.44;5008945;28;20300;-67
2021/03/22 03:22:54;;;;;;;12.83;4.47;;;;;;;1.25;73.38;98198.72;5010287;28;20212;-67
2021/03/22 03:25:22;;;;;;;9.73;4.77;;;;;;;1.09;74.12;98195.41;5005152;28;20229;-66
2021/03/22 03:27:49;;;;;;;6.53;5.20;;;;;;;1.05;74.24;98197.41;5006328;28;20244;-69
2021/03/22 03:30:19;;;;;;;7.97;3.97;;;;;;;1.09;73.95;98193.66;5002986;28;20205;-67
2021/03/22 03:32:46;;;;;;;10.87;4.17;;;;;;;0.95;74.77;98198.94;5002088;28;20234;-67
2021/03/22 03:35:15;;;;;;;12.87;4.37;;;;;;;0.91;74.88;98206.09;5005469;28;20422;-66
2021/03/22 03:37:43;;;;;;;10.50;3.90;;;;;;;0.97;74.17;98194.44;5003991;28;20231;-68
2021/03/22 03:40:13;;;;;;;7.97;3.70;;;;;;;0.93;74.28;98204.22;5002928;28;20641;-67
2021/03/22 03:42:40;;;;;;;11.93;4.43;;;;;;;0.77;75.42;98204.38;5006538;28;20209;-65
2021/03/22 03:45:10;;;;;;;7.93;3.93;;;;;;;1.14;74.00;98209.84;5002178;28;20319;-63
2021/03/22 03:47:38;;;;;;;12.77;5.57;;;;;;;1.08;74.86;98209.41;5003952;28;20699;-62
2021/03/22 03:50:07;;;;;;;10.83;4.40;;;;;;;1.17;75.10;98203.59;5003354;28;20505;-64
2021/03/22 03:52:34;;;;;;;10.83;3.70;;;;;;;1.11;74.59;98201.38;5000313;28;20233;-69
2021/03/22 03:55:03;;;;;;;7.20;3.80;;;;;;;1.03;74.29;98204.50;5004184;28;20906;-66
2021/03/22 03:57:31;;;;;;;10.67;4.00;;;;;;;0.95;74.93;98209.38;5001776;28;20733;-65
2021/03/22 03:59:58;;;;;;;9.43;3.67;;;;;;;0.93;75.71;98206.00;5002611;28;20588;-68
2021/03/22 04:02:25;;;;;;;14.17;5.10;;;;;;;0.77;75.62;98204.38;5002506;28;20223;-68
2021/03/22 04:04:53;;;;;;;6.87;3.80;;;;;;;0.75;75.86;98206.22;4999270;28;20221;-68
2021/03/22 04:07:20;;;;;;;7.63;4.10;;;;;;;0.65;76.58;98203.38;5003101;28;20681;-66
2021/03/22 04:09:48;;;;;;;12.77;4.67;;;;;;;0.83;76.32;98208.38;5003973;28;20201;-68
2021/03/22 04:12:15;;;;;;;13.97;5.47;;;;;;;0.67;76.38;98203.28;5004218;28;20229;-67
2021/03/22 04:14:43;;;;;;;10.13;3.70;;;;;;;0.76;76.76;98213.13;5006056;28;20228;-68
2021/03/22 04:17:10;;;;;;;10.67;4.90;;;;;;;0.75;76.80;98208.84;5004387;28;20758;-68
2021/03/22 04:19:38;;;;;;;11.03;5.23;;;;;;;0.71;77.06;98204.75;5000609;28;20209;-68
2021/03/22 04:22:05;;;;;;;12.90;4.80;;;;;;;0.72;76.49;98202.03;5002241;28;20329;-68
2021/03/22 04:24:33;;;;;;;8.07;4.50;;;;;;;0.86;76.80;98197.75;5002393;28;20227;-69
2021/03/22 04:27:00;;;;;;;10.30;4.80;;;;;;;0.91;75.45;98198.28;4994874;28;20218;-67
2021/03/22 04:29:27;;;;;;;10.00;4.03;;;;;;;0.85;76.39;98201.28;5000414;28;20669;-68
2021/03/22 04:31:55;;;;;;;13.90;4.63;;;;;;;0.68;76.75;98199.75;5001256;28;20590;-68
2021/03/22 04:34:22;;;;;;;7.93;4.17;;;;;;;0.61;77.58;98198.44;5006255;28;20229;-67
2021/03/22 04:36:49;;;;;;;11.23;3.77;;;;;;;0.72;76.77;98196.81;5002628;28;20680;-66
2021/03/22 04:39:16;;;;;;;8.50;4.30;;;;;;;0.69;77.39;98198.81;5007174;28;20518;-66
2021/03/22 04:41:44;;;;;;;10.17;4.07;;;;;;;0.75;76.96;98202.78;5001221;28;20249;-68
2021/03/22 04:44:11;;;;;;;11.27;4.73;;;;;;;0.62;77.37;98200.94;5004317;28;20231;-67
2021/03/22 04:46:39;;;;;;;10.97;3.87;;;;;;;0.62;77.23;98206.16;5000117;28;20662;-68
2021/03/22 04:49:07;;;;;;;9.57;4.37;;;;;;;0.54;77.25;98209.25;5002617;28;20213;-67
2021/03/22 04:51:34;;;;;;;8.60;4.07;;;;;;;0.46;78.21;98210.66;5003810;28;20324;-68
2021/03/22 04:54:01;;;;;;;16.27;4.47;;;;;;;0.42;78.18;98202.19;5005149;28;20602;-67
2021/03/22 04:56:28;;;;;;;13.73;5.47;;;;;;;0.25;78.66;98208.44;5006192;28;20305;-67
2021/03/22 04:58:56;;;;;;;14.10;5.13;;;;;;;0.12;79.87;98206.59;5004244;28;20224;-67
2021/03/22 05:01:23;;;;;;;7.57;4.20;;;;;;;0.22;79.64;98212.09;4998168;28;20204;-68
2021/03/22 05:03:50;;;;;;;12.67;4.10;;;;;;;0.18;79.74;98207.97;5002381;28;20236;-67
2021/03/22 05:06:19;;;;;;;14.47;4.30;;;;;;;0.20;79.75;98211.34;5000147;28;20213;-67
2021/03/22 05:08:46;;;;;;;11.90;4.33;;;;;;;0.16;79.46;98209.00;5005092;28;20300;-69
2021/03/22 05:11:15;;;;;;;7.80;4.20;;;;;;;0.03;80.46;98211.50;5003003;28;20672;-68
2021/03/22 05:13:43;;;;;;;12.50;4.37;;;;;;;0.01;80.32;98210.75;4996872;28;20229;-66
2021/03/22 05:16:12;;;;;;;12.40;4.27;;;;;;;0.19;79.46;98207.06;4998125;28;20205;-68
2021/03/22 05:18:39;;;;;;;8.43;3.87;;;;;;;0.15;80.02;98215.97;5001590;28;20255;-69
2021/03/22 05:21:07;;;;;;;11.27;4.87;;;;;;;0.17;79.91;98214.09;5004353;28;20231;-68
2021/03/22 05:23:37;;;;;;;9.70;4.57;;;;;;;0.17;79.17;98214.09;4997847;28;20210;-68
2021/03/22 05:26:05;;;;;;;10.13;4.10;;;;;;;0.19;79.14;98220.09;4999320;28;20208;-68
2021/03/22 05:28:34;;;;;;;8.93;4.10;;;;;;;0.24;79.78;98223.25;5000228;28;20205;-68
2021/03/22 05:31:02;;;;;;;9.50;3.87;;;;;;;0.20;79.88;98234.81;4998564;28;20635;-68
2021/03/22 05:33:30;;;;;;;7.80;3.53;;;;;;;0.27;79.21;98237.84;5002717;28;20213;-70
2021/03/22 05:36:00;;;;;;;6.77;3.73;;;;;;;0.28;79.09;98243.00;4997349;28;20679;-68
2021/03/22 05:38:28;;;;;;;7.63;4.03;;;;;;;0.27;78.38;98233.50;5001072;28;20331;-70
2021/03/22 05:40:57;;;;;;;14.13;4.23;;;;;;;0.35;78.20;98240.00;5003780;28;20208;-71
2021/03/22 05:43:48;;;;;;;13.33;4.23;;;;;;;0.20;79.40;98239.16;5003635;28;20204;-71
2021/03/22 05:46:22;;;;;;;10.07;4.20;;;;;;;0.18;79.01;98248.84;4998188;28;20217;-71
2021/03/22 05:49:18;;;;;;;10.47;4.33;;;;;;;0.26;79.29;98254.44;4997679;28;20204;-71
2021/03/22 05:52:06;;;;;;;8.70;3.80;;;;;;;0.20;79.74;98242.63;5005552;28;20321;-71
2021/03/22 05:54:48;;;;;;;12.10;4.30;;;;;;;0.24;79.01;98246.72;4990201;28;20240;-70
2021/03/22 05:57:25;;;;;;;11.23;3.83;;;;;;;0.30;79.46;98244.66;5001673;28;20208;-69
2021/03/22 05:59:56;;;;;;;8.13;4.00;;;;;;;0.41;78.78;98240.47;5000191;28;20677;-70
2021/03/22 06:02:32;;;;;;;9.63;4.10;;;;;;;0.46;78.40;98239.34;5001278;28;20209;-71
2021/03/22 06:05:05;;;;;;;9.10;3.67;;;;;;;0.61;78.10;98248.84;5000051;28;20231;-69
2021/03/22 06:07:32;;;;;;;16.27;5.30;;;;;;;0.58;78.51;98251.63;4989669;28;20292;-70
2021/03/22 06:10:03;;;;;;;10.27;3.60;;;;;;;0.76;78.45;98254.03;4999979;28;20227;-71
2021/03/22 06:12:36;;;;;;;10.83;4.93;;;;;;;0.99;76.12;98271.69;5001742;28;20224;-72
2021/03/22 06:15:11;;;;;;;7.43;5.43;;;;;;;1.03;75.69;98267.13;5003012;28;20227;-70
2021/03/22 06:17:39;;;;;;;16.93;6.00;;;;;;;1.01;75.28;98274.22;5002437;28;20398;-71
2021/03/22 06:20:17;;;;;;;11.40;5.80;;;;;;;0.95;76.27;98282.44;5000950;28;20209;-71
2021/03/22 06:22:45;;;;;;;14.77;6.50;;;;;;;1.24;75.11;98279.75;4997869;28;20208;-69
2021/03/22 06:25:16;;;;;;;17.87;8.03;;;;;;;1.30;75.14;98281.94;5000614;28;20256;-70
2021/03/22 06:27:46;;;;;;;18.17;8.80;;;;;;;1.56;74.09;98285.53;5000748;28;20717;-71
2021/03/22 06:30:20;;;;;;;16.93;6.47;;;;;;;1.59;73.22;98292.31;5002667;28;20208;-71
2021/03/22 06:32:49;;;;;;;7.00;5.27;;;;;;;1.64;73.22;98289.41;5001853;28;20570;-71
2021/03/22 06:35:22;;;;;;;14.30;4.97;;;;;;;1.72;72.32;98289.72;5001098;28;20228;-71
2021/03/22 06:37:50;;;;;;;12.17;4.53;;;;;;;1.83;72.05;98296.88;4996203;28;20208;-71
2021/03/22 06:40:31;;;;;;;11.27;4.30;;;;;;;1.93;71.91;98289.25;5000006;28;20211;-71
2021/03/22 06:43:09;;;;;;;11.50;4.57;;;;;;;1.97;71.45;98291.56;5000007;28;20204;-71
2021/03/22 06:45:39;;;;;;;10.93;4.57;;;;;;;1.94;71.40;98291.75;5008137;28;20805;-71
2021/03/22 06:48:21;;;;;;;8.77;3.47;;;;;;;1.91;71.30;98299.00;5006450;28;20291;-72
2021/03/22 06:50:50;;;;;;;9.03;3.77;;;;;;;1.89;71.46;98299.06;5000942;28;20201;-71
2021/03/22 06:53:36;;;;;;;5.20;3.67;;;;;;;1.91;70.84;98302.44;5006016;28;20327;-71
2021/03/22 06:56:20;;;;;;;8.20;4.43;;;;;;;1.96;70.30;98308.19;5005983;28;20509;-71
2021/03/22 06:58:51;;;;;;;6.47;4.10;;;;;;;2.01;70.48;98297.44;5004612;28;20319;-71
2021/03/22 07:01:26;;;;;;;6.60;3.80;;;;;;;2.20;69.56;98306.66;4999540;28;20251;-69
2021/03/22 07:03:54;;;;;;;7.77;3.37;;;;;;;2.24;69.08;98302.88;5006014;28;20216;-72
2021/03/22 07:06:23;;;;;;;13.40;3.90;;;;;;;2.12;69.28;98300.16;5000024;28;20622;-70
2021/03/22 07:08:50;;;;;;;12.57;4.33;;;;;;;2.09;69.85;98310.81;5007724;28;20228;-70
2021/03/22 07:11:19;;;;;;;7.23;3.80;;;;;;;2.21;69.76;98310.94;5002679;28;20233;-69
2021/03/22 07:13:57;;;;;;;6.43;3.80;;;;;;;2.11;68.86;98305.50;5008755;28;20717;-70
2021/03/22 07:16:26;;;;;;;9.03;5.10;;;;;;;2.23;68.49;98315.13;5002287;28;20621;-69
2021/03/22 07:19:15;;;;;;;9.30;3.67;;;;;;;2.03;70.01;98319.06;5004273;28;20235;-68
2021/03/22 07:21:49;;;;;;;7.83;3.37;;;;;;;2.14;69.22;98318.38;5004874;28;20231;-70
2021/03/22 07:24:25;;;;;;;8.47;3.67;;;;;;;2.06;68.84;98313.63;5003313;28;20608;-69
2021/03/22 07:27:01;;;;;;;6.93;3.30;;;;;;;1.99;68.77;98320.22;5008057;28;20439;-69
2021/03/22 07:29:55;;;;;;;7.37;3.27;;;;;;;1.98;68.74;98316.75;5003315;28;20200;-71
2021/03/22 07:32:48;;;;;;;9.10;3.60;;;;;;;2.15;68.56;98322.66;5005676;28;20541;-70
2021/03/22 07:35:39;;;;;;;10.10;4.67;;;;;;;2.14;67.92;98311.34;5001617;28;20636;-71
2021/03/22 07:38:11;;;;;;;6.70;3.83;;;;;;;1.96;69.09;98323.03;4999489;28;20390;-69
2021/03/22 07:40:44;;;;;;;7.30;4.70;;;;;;;2.10;69.13;98322.94;5003315;28;20208;-70
2021/03/22 07:43:16;;;;;;;7.67;4.47;;;;;;;1.98;69.70;98327.22;5006723;28;20236;-70
2021/03/22 07:45:52;;;;;;;10.20;3.67;;;;;;;2.19;68.08;98336.34;5009468;28;20557;-70
2021/03/22 07:48:41;;;;;;;10.07;4.10;;;;;;;2.22;67.73;98337.00;5003285;28;20203;-68
2021/03/22 07:51:47;;;;;;;10.43;4.33;;;;;;;2.16;69.20;98337.41;5009749;28;20209;-70
2021/03/22 07:54:24;;;;;;;11.20;6.97;;;;;;;2.15;69.25;98333.13;4954626;28;20233;-70
2021/03/22 07:56:55;;;;;;;10.53;3.73;;;;;;;2.35;68.30;98326.53;5006382;28;20277;-70
2021/03/22 07:59:27;;;;;;;12.37;5.33;;;;;;;2.35;68.61;98333.53;5003504;28;20251;-69
2021/03/22 08:02:03;;;;;;;24.53;13.57;;;;;;;2.29;67.87;98343.47;4998811;28;20371;-69
2021/03/22 08:04:44;;;;;;;10.53;5.20;;;;;;;2.38;67.80;98349.88;5001704;28;20220;-68
2021/03/22 08:07:48;;;;;;;30.70;22.40;;;;;;;2.48;67.24;98344.88;5008868;28;20208;-69
2021/03/22 08:10:37;;;;;;;14.67;4.87;;;;;;;2.48;67.63;98350.09;5010232;28;20763;-71
2021/03/22 08:13:16;;;;;;;7.57;3.47;;;;;;;2.51;67.50;98344.66;5004111;28;20225;-68
2021/03/22 08:15:50;;;;;;;9.43;3.83;;;;;;;2.55;67.22;98346.13;5000126;28;20231;-70
2021/03/22 08:18:28;;;;;;;8.70;3.90;;;;;;;2.69;66.79;98341.72;5003171;28;20212;-69
2021/03/22 08:21:07;;;;;;;14.97;9.07;;;;;;;2.74;66.45;98350.09;5005317;28;20200;-70
2021/03/22 08:23:43;;;;;;;7.80;4.00;;;;;;;2.58;67.02;98350.28;5003601;28;20635;-69
2021/03/22 08:26:17;;;;;;;10.40;6.03;;;;;;;2.69;66.18;98353.03;5007643;28;20320;-69
2021/03/22 08:28:54;;;;;;;7.07;3.90;;;;;;;2.69;65.91;98360.03;5002218;28;20476;-68
2021/03/22 08:31:27;;;;;;;4.40;2.70;;;;;;;2.72;65.98;98365.06;5004408;28;20219;-69
2021/03/22 08:34:00;;;;;;;10.60;4.10;;;;;;;2.61;66.07;98363.16;4997915;28;20230;-68
2021/03/22 08:36:34;;;;;;;7.23;3.13;;;;;;;2.78;65.38;98374.28;5002542;28;20292;-70
2021/03/22 08:39:08;;;;;;;8.00;3.87;;;;;;;2.68;66.32;98374.06;4999327;28;20208;-67
2021/03/22 08:41:38;;;;;;;6.20;3.80;;;;;;;2.64;65.85;98375.22;5000717;28;20635;-69
2021/03/22 08:44:15;;;;;;;5.43;3.33;;;;;;;2.75;65.91;98376.16;5001718;28;20500;-69
2021/03/22 08:46:46;;;;;;;7.93;3.70;;;;;;;2.65;65.72;98379.50;5008042;28;20240;-68
2021/03/22 08:49:20;;;;;;;5.43;3.53;;;;;;;2.72;65.79;98378.16;5000954;28;20771;-69
2021/03/22 08:51:56;;;;;;;5.07;2.83;;;;;;;2.57;66.68;98383.50;5000108;28;20577;-70
2021/03/22 08:54:26;;;;;;;3.90;3.50;;;;;;;2.75;66.01;98384.03;5007501;28;20227;-69
2021/03/22 08:57:00;;;;;;;6.83;3.27;;;;;;;2.71;65.65;98385.19;5002970;28;20307;-71
2021/03/22 08:59:27;;;;;;;6.27;3.57;;;;;;;2.84;64.98;98389.56;5000789;28;20842;-68
2021/03/22 09:02:14;;;;;;;6.37;4.10;;;;;;;2.85;65.61;98388.63;5001565;28;20354;-70
2021/03/22 09:04:42;;;;;;;10.57;3.50;;;;;;;2.91;64.67;98376.91;5002289;28;20221;-69
2021/03/22 09:07:26;;;;;;;6.07;3.03;;;;;;;2.89;64.59;98395.31;5000102;28;20783;-69
2021/03/22 09:09:53;;;;;;;6.70;3.17;;;;;;;2.97;64.60;98387.75;4998861;28;20694;-69
2021/03/22 09:12:31;;;;;;;7.07;3.13;;;;;;;3.11;63.46;98386.81;5002609;28;20225;-70
2021/03/22 09:14:59;;;;;;;9.27;3.53;;;;;;;2.86;63.89;98404.22;4997124;28;20481;-69
2021/03/22 09:17:34;;;;;;;8.17;3.17;;;;;;;2.89;63.98;98404.03;4998301;28;20290;-71
2021/03/22 09:20:14;;;;;;;8.03;3.30;;;;;;;3.09;62.98;98401.78;5001066;28;20212;-70
2021/03/22 09:22:54;;;;;;;4.83;3.07;;;;;;;3.22;63.32;98400.94;4999899;28;20560;-69
2021/03/22 09:26:03;;;;;;;7.87;4.13;;;;;;;3.24;63.43;98399.06;5000066;28;20575;-70
2021/03/22 09:28:59;;;;;;;7.10;3.33;;;;;;;3.49;62.30;98398.16;4997077;28;20210;-70
2021/03/22 09:31:43;;;;;;;6.80;2.87;;;;;;;3.51;62.46;98405.91;5002850;28;20275;-69
2021/03/22 09:34:45;;;;;;;4.93;3.00;;;;;;;3.52;62.17;98402.34;4995127;28;20294;-71
2021/03/22 09:37:46;;;;;;;6.00;3.50;;;;;;;3.41;62.48;98406.56;5006618;28;20502;-70
2021/03/22 09:41:03;;;;;;;3.97;2.53;;;;;;;3.44;61.87;98416.00;5003006;28;20203;-70
2021/03/22 09:43:34;;;;;;;8.57;4.10;;;;;;;3.40;62.40;98418.00;5002041;28;20212;-71
2021/03/22 09:46:16;;;;;;;7.90;3.00;;;;;;;3.55;62.67;98413.44;5004288;28;20196;-67
2021/03/22 09:48:44;;;;;;;2.90;2.47;;;;;;;3.60;61.63;98421.81;5001324;28;20213;-70
2021/03/22 09:51:32;;;;;;;10.97;3.03;;;;;;;3.48;61.64;98410.41;5005160;28;20209;-70
2021/03/22 09:54:01;;;;;;;3.73;3.00;;;;;;;3.62;62.09;98416.47;5006715;28;20387;-71
2021/03/22 09:56:31;;;;;;;8.60;2.80;;;;;;;3.59;61.14;98406.19;5001239;28;20292;-70
2021/03/22 09:59:23;;;;;;;5.47;2.90;;;;;;;3.48;61.25;98409.59;5000638;28;20233;-70
2021/03/22 10:01:51;;;;;;;4.63;2.30;;;;;;;3.34;62.02;98410.56;5000872;28;20282;-68
2021/03/22 10:04:36;;;;;;;5.93;2.57;;;;;;;3.58;61.43;98412.38;5003367;28;20429;-68
2021/03/22 10:07:21;;;;;;;2.90;2.70;;;;;;;3.34;62.60;98413.19;5006829;28;20227;-70
2021/03/22 10:09:54;;;;;;;4.67;2.63;;;;;;;3.37;62.76;98407.72;5000408;28;20201;-70
2021/03/22 10:12:27;;;;;;;6.00;3.20;;;;;;;3.42;62.66;98413.47;5006568;28;20446;-71
2021/03/22 10:15:07;;;;;;;10.63;2.80;;;;;;;3.62;62.32;98408.63;4999219;28;20311;-69
2021/03/22 10:17:37;;;;;;;6.00;3.10;;;;;;;3.79;61.71;98410.03;5001886;28;20197;-70
2021/03/22 10:20:21;;;;;;;7.93;3.30;;;;;;;3.76;61.56;98404.97;5002737;28;20662;-71
2021/03/22 10:23:07;;;;;;;5.93;3.40;;;;;;;3.55;62.32;98407.34;5002421;28;20663;-70
2021/03/22 10:25:36;;;;;;;4.00;3.00;;;;;;;3.64;62.44;98413.72;5000398;28;20223;-70
2021/03/22 10:28:05;;;;;;;3.93;2.53;;;;;;;3.58;62.22;98407.13;4995725;28;20518;-70
2021/03/22 10:30:34;;;;;;;8.73;4.00;;;;;;;3.51;62.36;98414.63;4989315;28;20883;-70
2021/03/22 10:33:03;;;;;;;3.23;2.93;;;;;;;3.68;62.86;98416.03;4996540;28;20396;-69
2021/03/22 10:35:41;;;;;;;6.00;2.90;;;;;;;3.73;62.02;98416.53;5005689;28;20225;-71
2021/03/22 10:38:13;;;;;;;6.20;2.80;;;;;;;3.80;61.66;98410.84;5003879;28;20216;-70
2021/03/22 10:40:41;;;;;;;4.97;2.73;;;;;;;3.96;61.07;98418.44;5003186;28;20648;-70
2021/03/22 10:43:29;;;;;;;8.70;3.57;;;;;;;4.16;60.56;98423.06;5003253;28;20383;-71
2021/03/22 10:45:57;;;;;;;5.73;3.67;;;;;;;3.94;61.25;98421.16;5004941;28;20215;-71
2021/03/22 10:48:31;;;;;;;6.53;3.23;;;;;;;4.06;61.43;98424.69;5004668;28;20207;-70
2021/03/22 10:51:00;;;;;;;3.33;2.43;;;;;;;3.98;60.51;98427.91;5000413;28;20193;-70
2021/03/22 10:53:28;;;;;;;5.23;3.40;;;;;;;3.87;60.42;98420.78;4998895;28;20776;-70
2021/03/22 10:55:57;;;;;;;4.73;2.77;;;;;;;3.90;60.46;98427.59;4998714;28;20300;-71
2021/03/22 10:58:26;;;;;;;7.00;2.63;;;;;;;3.95;59.25;98422.03;5002572;28;20658;-71
2021/03/22 11:00:59;;;;;;;6.20;2.60;;;;;;;4.06;59.19;98432.56;4997536;28;20230;-69
2021/03/22 11:03:28;;;;;;;5.67;2.63;;;;;;;4.16;59.19;98437.97;4998516;28;20197;-71
2021/03/22 11:05:56;;;;;;;6.07;2.60;;;;;;;4.11;59.27;98437.47;4998918;28;20580;-71
2021/03/22 11:08:27;;;;;;;2.63;2.43;;;;;;;3.99;59.80;98437.44;5003974;28;20213;-70
2021/03/22 11:11:02;;;;;;;6.07;2.67;;;;;;;3.83;60.83;98440.31;5000085;28;20201;-70
2021/03/22 11:13:30;;;;;;;3.47;2.60;;;;;;;3.95;60.68;98440.38;5000965;28;20323;-71
2021/03/22 11:16:12;;;;;;;3.70;3.03;;;;;;;3.76;61.19;98437.28;5001020;28;20204;-69
2021/03/22 11:18:39;;;;;;;3.93;2.60;;;;;;;3.69;61.71;98435.22;5005137;28;20205;-69
2021/03/22 11:21:07;;;;;;;4.13;2.77;;;;;;;3.77;60.99;98438.13;5008784;28;20315;-70
2021/03/22 11:23:42;;;;;;;3.97;2.57;;;;;;;3.87;60.19;98440.91;5001315;28;20703;-71
2021/03/22 11:26:17;;;;;;;5.20;2.63;;;;;;;3.85;60.12;98425.31;4999282;28;20760;-70
2021/03/22 11:28:45;;;;;;;3.37;2.87;;;;;;;3.79;60.06;98435.41;5001983;28;20441;-71
2021/03/22 11:31:23;;;;;;;6.27;2.80;;;;;;;3.84;59.91;98442.00;4999511;28;20201;-71
2021/03/22 11:34:01;;;;;;;6.93;2.60;;;;;;;3.82;59.99;98437.78;5003928;28;20230;-71
2021/03/22 11:36:34;;;;;;;8.67;3.50;;;;;;;3.89;60.35;98444.25;5006010;28;20295;-69
2021/03/22 11:39:10;;;;;;;4.40;2.70;;;;;;;4.08;60.42;98437.72;5006309;28;20209;-71
2021/03/22 11:41:41;;;;;;;5.73;3.30;;;;;;;4.14;60.41;98440.69;5008209;28;20208;-70
2021/03/22 11:44:22;;;;;;;4.07;2.70;;;;;;;4.18;60.50;98442.19;5003532;28;20232;-70
2021/03/22 11:46:51;;;;;;;8.00;3.70;;;;;;;4.30;60.10;98442.22;5005016;28;20204;-70
2021/03/22 11:49:38;;;;;;;6.50;3.83;;;;;;;4.36;60.00;98444.38;5002562;28;20210;-70
2021/03/22 11:52:16;;;;;;;3.80;3.00;;;;;;;4.57;59.33;98449.00;5009529;28;20676;-70
2021/03/22 11:54:51;;;;;;;6.23;3.00;;;;;;;4.38;59.36;98449.53;5005836;28;20367;-70
2021/03/22 11:57:23;;;;;;;2.77;2.57;;;;;;;4.41;59.06;98444.06;5000000;28;20232;-70
2021/03/22 11:59:55;;;;;;;5.47;2.93;;;;;;;4.31;59.88;98443.88;4998935;28;20216;-70
2021/03/22 12:02:25;;;;;;;5.17;2.87;;;;;;;4.49;58.90;98449.56;5005508;28;20637;-71
2021/03/22 12:04:55;;;;;;;5.03;3.23;;;;;;;4.52;59.15;98440.59;5002358;28;20230;-71